Time,TemperatureF,DewpointF,PressureIn,WindDirection,WindDirectionDegrees,WindSpeedMPH,WindSpeedGustMPH,Humidity,HourlyPrecipIn,Conditions,Clouds,dailyrainin,SoftwareType,DateUTC
2013-04-16 00:00:00,40.8,31.1,30.37,SSW,202,1.0,1.1,68,0.00,CLR,,0.00,WeatherDisplay:10.37,2013-04-16 04:00:00,
2013-04-16 00:02:00,40.8,31.1,30.37,SSW,202,1.0,1.1,68,0.00,CLR,,0.00,WeatherDisplay:10.37,2013-04-16 04:02:00,
2013-04-16 00:05:00,40.8,31.1,30.37,SSW,202,1.0,1.1,68,0.00,CLR,,0.00,WeatherDisplay:10.37,2013-04-16 04:05:00,
2013-04-16 00:06:00,40.8,31.1,30.37,SSW,202,1.0,1.1,68,0.00,CLR,,0.00,WeatherDisplay:10.37,2013-04-16 04:06:00,
2013-04-16 00:11:00,40.8,31.1,30.37,SSW,202,1.0,1.1,68,0.00,CLR,,0.00,WeatherDisplay:10.37,2013-04-16 04:11:00,
2013-04-16 00:16:00,40.5,31.1,30.34,NW,315,0.3,0.0,69,0.00,CLR,,0.00,WeatherDisplay:10.37,2013-04-16 04:16:00,
2013-04-16 00:21:00,40.5,31.1,30.34,South,180,0.2,0.0,69,0.00,CLR,,0.00,WeatherDisplay:10.37,2013-04-16 04:21:00,
2013-04-16 00:26:00,40.3,30.9,30.34,South,180,0.1,1.1,69,0.00,CLR,,0.00,WeatherDisplay:10.37,2013-04-16 04:26:00,
2013-04-16 00:31:00,40.1,30.7,30.34,South,180,0.3,1.1,69,0.00,CLR,,0.00,WeatherDisplay:10.37,2013-04-16 04:31:00,
2013-04-16 00:36:00,39.9,30.6,30.36,West,270,0.3,0.0,69,0.00,CLR,,0.00,WeatherDisplay:10.37,2013-04-16 04:36:00,
2013-04-16 00:41:00,39.7,30.8,30.36,NE,45,0.1,0.0,70,0.00,CLR,,0.00,WeatherDisplay:10.37,2013-04-16 04:41:00,
2013-04-16 00:46:00,39.7,30.8,30.36,SSE,158,0.0,0.0,70,0.00,CLR,,0.00,WeatherDisplay:10.37,2013-04-16 04:46:00,
2013-04-16 00:51:00,39.7,30.8,30.36,SW,225,0.0,0.0,70,0.00,CLR,,0.00,WeatherDisplay:10.37,2013-04-16 04:51:00,
2013-04-16 00:56:00,39.2,30.2,30.37,South,180,0.1,0.0,70,0.00,CLR,,0.00,WeatherDisplay:10.37,2013-04-16 04:56:00,
2013-04-16 01:01:00,39.2,30.2,30.37,NE,45,0.2,1.1,70,0.00,CLR,,0.00,WeatherDisplay:10.37,2013-04-16 05:01:00,
2013-04-16 01:06:00,39.0,30.4,30.37,SSE,158,0.2,0.0,71,0.00,CLR,,0.00,WeatherDisplay:10.37,2013-04-16 05:06:00,
2013-04-16 01:11:00,38.8,30.2,30.37,SSE,158,0.3,2.3,71,0.00,CLR,,0.00,WeatherDisplay:10.37,2013-04-16 05:11:00,
2013-04-16 01:16:00,39.0,30.8,30.37,South,180,0.2,1.1,72,0.00,CLR,,0.00,WeatherDisplay:10.37,2013-04-16 05:16:00,
2013-04-16 01:21:00,39.0,30.8,30.37,East,90,0.2,2.3,72,0.00,CLR,,0.00,WeatherDisplay:10.37,2013-04-16 05:21:00,
2013-04-16 01:26:00,39.0,30.8,30.37,South,180,0.3,3.5,72,0.00,CLR,,0.00,WeatherDisplay:10.37,2013-04-16 05:26:00,
2013-04-16 01:31:00,38.8,30.6,30.37,SE,135,0.5,1.1,72,0.00,CLR,,0.00,WeatherDisplay:10.37,2013-04-16 05:31:00,
2013-04-16 01:37:00,38.5,30.2,30.36,East,90,0.2,0.0,72,0.00,CLR,,0.00,WeatherDisplay:10.37,2013-04-16 05:37:00,
2013-04-16 01:41:00,38.3,30.1,30.36,SSE,158,0.1,0.0,72,0.00,CLR,,0.00,WeatherDisplay:10.37,2013-04-16 05:41:00,
2013-04-16 01:46:00,38.3,30.4,30.36,ENE,68,0.0,0.0,73,0.00,CLR,,0.00,WeatherDisplay:10.37,2013-04-16 05:46:00,
2013-04-16 01:51:00,38.3,30.4,30.36,South,180,0.0,0.0,73,0.00,CLR,,0.00,WeatherDisplay:10.37,2013-04-16 05:51:00,
2013-04-16 01:57:00,37.8,30.2,30.36,East,90,0.1,1.1,74,0.00,CLR,,0.00,WeatherDisplay:10.37,2013-04-16 05:57:00,
2013-04-16 02:02:00,37.8,30.2,30.36,East,90,0.1,0.0,74,0.00,CLR,,0.00,WeatherDisplay:10.37,2013-04-16 06:02:00,
2013-04-16 02:07:00,37.8,30.2,30.36,SSE,158,0.1,0.0,74,0.00,CLR,,0.00,WeatherDisplay:10.37,2013-04-16 06:07:00,
2013-04-16 02:12:00,37.8,30.5,30.36,ENE,68,0.1,0.0,75,0.00,CLR,,0.00,WeatherDisplay:10.37,2013-04-16 06:12:00,
2013-04-16 02:17:00,37.6,30.4,30.34,NE,45,0.1,0.0,75,0.00,CLR,,0.00,WeatherDisplay:10.37,2013-04-16 06:17:00,
2013-04-16 02:22:00,37.6,30.4,30.34,East,90,0.1,0.0,75,0.00,CLR,,0.00,WeatherDisplay:10.37,2013-04-16 06:22:00,
2013-04-16 02:27:00,37.6,30.4,30.34,SW,225,0.1,0.0,75,0.00,CLR,,0.00,WeatherDisplay:10.37,2013-04-16 06:27:00,
2013-04-16 02:32:00,37.6,30.4,30.34,SSW,202,0.2,1.1,75,0.00,CLR,,0.00,WeatherDisplay:10.37,2013-04-16 06:32:00,
2013-04-16 02:37:00,37.6,30.4,30.34,SSW,202,0.1,0.0,75,0.00,CLR,,0.00,WeatherDisplay:10.37,2013-04-16 06:37:00,
2013-04-16 02:42:00,37.6,30.4,30.34,SE,135,0.2,2.3,75,0.00,CLR,,0.00,WeatherDisplay:10.37,2013-04-16 06:42:00,
2013-04-16 02:47:00,37.6,30.7,30.34,SSE,158,0.5,0.0,76,0.00,CLR,,0.00,WeatherDisplay:10.37,2013-04-16 06:47:00,
2013-04-16 02:53:00,37.6,30.7,30.34,East,90,0.3,0.0,76,0.00,CLR,,0.00,WeatherDisplay:10.37,2013-04-16 06:53:00,
2013-04-16 02:58:00,37.6,30.7,30.34,ESE,112,0.0,1.1,76,0.00,CLR,,0.00,WeatherDisplay:10.37,2013-04-16 06:58:00,
2013-04-16 03:03:00,37.6,30.7,30.34,SSW,202,0.1,1.1,76,0.00,CLR,,0.00,WeatherDisplay:10.37,2013-04-16 07:03:00,
2013-04-16 03:08:00,37.6,30.7,30.34,SSW,202,0.1,0.0,76,0.00,CLR,,0.00,WeatherDisplay:10.37,2013-04-16 07:08:00,
2013-04-16 03:13:00,37.6,30.7,30.34,East,90,0.3,0.0,76,0.00,CLR,,0.00,WeatherDisplay:10.37,2013-04-16 07:13:00,
2013-04-16 03:18:00,37.6,30.7,30.34,South,180,0.5,0.0,76,0.00,CLR,,0.00,WeatherDisplay:10.37,2013-04-16 07:18:00,
2013-04-16 03:23:00,37.6,30.7,30.34,SSE,158,0.3,1.1,76,0.00,CLR,,0.00,WeatherDisplay:10.37,2013-04-16 07:23:00,
2013-04-16 03:28:00,37.6,30.7,30.34,East,90,0.3,0.0,76,0.00,CLR,,0.00,WeatherDisplay:10.37,2013-04-16 07:28:00,
2013-04-16 03:33:00,37.6,30.7,30.34,SW,225,0.2,0.0,76,0.00,CLR,,0.00,WeatherDisplay:10.37,2013-04-16 07:33:00,
2013-04-16 03:38:00,37.2,30.3,30.35,East,90,0.2,0.0,76,0.00,CLR,,0.00,WeatherDisplay:10.37,2013-04-16 07:38:00,
2013-04-16 03:43:00,37.0,30.2,30.35,NNE,22,0.0,0.0,76,0.00,CLR,,0.00,WeatherDisplay:10.37,2013-04-16 07:43:00,
2013-04-16 03:48:00,37.2,30.3,30.35,NNE,22,0.0,0.0,76,0.00,CLR,,0.00,WeatherDisplay:10.37,2013-04-16 07:48:00,
2013-04-16 03:53:00,37.0,30.5,30.35,SSE,158,0.2,2.3,77,0.00,CLR,,0.00,WeatherDisplay:10.37,2013-04-16 07:53:00,
2013-04-16 03:58:00,37.2,30.7,30.35,SW,225,0.3,0.0,77,0.00,CLR,,0.00,WeatherDisplay:10.37,2013-04-16 07:58:00,
2013-04-16 04:03:00,37.0,30.5,30.35,WSW,248,0.3,0.0,77,0.00,CLR,,0.00,WeatherDisplay:10.37,2013-04-16 08:03:00,
2013-04-16 04:08:00,37.0,30.5,30.35,South,180,0.0,1.1,77,0.00,CLR,,0.00,WeatherDisplay:10.37,2013-04-16 08:08:00,
2013-04-16 04:13:00,37.0,30.5,30.35,SE,135,0.1,1.1,77,0.00,CLR,,0.00,WeatherDisplay:10.37,2013-04-16 08:13:00,
2013-04-16 04:18:00,36.9,30.3,30.35,South,180,0.1,0.0,77,0.00,CLR,,0.00,WeatherDisplay:10.37,2013-04-16 08:18:00,
2013-04-16 04:23:00,36.9,30.3,30.35,South,180,0.0,1.1,77,0.00,CLR,,0.00,WeatherDisplay:10.37,2013-04-16 08:23:00,
2013-04-16 04:28:00,36.9,30.3,30.35,ENE,68,0.1,0.0,77,0.00,CLR,,0.00,WeatherDisplay:10.37,2013-04-16 08:28:00,
2013-04-16 04:33:00,36.9,30.6,30.35,NW,315,0.1,0.0,78,0.00,CLR,,0.00,WeatherDisplay:10.37,2013-04-16 08:33:00,
2013-04-16 04:39:00,36.9,30.6,30.34,SSW,202,0.3,1.1,78,0.00,CLR,,0.00,WeatherDisplay:10.37,2013-04-16 08:39:00,
2013-04-16 04:44:00,37.0,30.8,30.34,SW,225,0.6,2.3,78,0.00,CLR,,0.00,WeatherDisplay:10.37,2013-04-16 08:44:00,
2013-04-16 04:49:00,37.0,30.8,30.34,South,180,0.5,2.3,78,0.00,CLR,,0.00,WeatherDisplay:10.37,2013-04-16 08:49:00,
2013-04-16 04:54:00,36.9,30.6,30.34,South,180,0.2,0.0,78,0.00,CLR,,0.00,WeatherDisplay:10.37,2013-04-16 08:54:00,
2013-04-16 04:59:00,36.9,30.6,30.34,SW,225,0.1,0.0,78,0.00,CLR,,0.00,WeatherDisplay:10.37,2013-04-16 08:59:00,
2013-04-16 05:04:00,37.0,31.1,30.34,SSE,158,0.7,3.5,79,0.00,CLR,,0.00,WeatherDisplay:10.37,2013-04-16 09:04:00,
2013-04-16 05:09:00,37.0,31.1,30.34,South,180,0.8,0.0,79,0.00,CLR,,0.00,WeatherDisplay:10.37,2013-04-16 09:09:00,
2013-04-16 05:14:00,37.2,31.3,30.34,SSW,202,0.6,2.3,79,0.00,CLR,,0.00,WeatherDisplay:10.37,2013-04-16 09:14:00,
2013-04-16 05:19:00,37.6,31.7,30.34,NE,45,1.0,1.4,79,0.00,CLR,,0.00,WeatherDisplay:10.37,2013-04-16 09:19:00,
2013-04-16 05:24:00,37.6,31.7,30.34,ENE,68,1.0,2.3,79,0.00,CLR,,0.00,WeatherDisplay:10.37,2013-04-16 09:24:00,
2013-04-16 05:29:00,37.6,31.7,30.34,NNW,338,0.8,1.1,79,0.00,CLR,,0.00,WeatherDisplay:10.37,2013-04-16 09:29:00,
2013-04-16 05:34:00,37.2,31.3,30.34,SSE,158,0.5,0.0,79,0.00,CLR,,0.00,WeatherDisplay:10.37,2013-04-16 09:34:00,
2013-04-16 05:39:00,37.0,31.1,30.34,SW,225,0.2,1.1,79,0.00,CLR,,0.00,WeatherDisplay:10.37,2013-04-16 09:39:00,
2013-04-16 05:44:00,37.0,31.4,30.34,South,180,0.3,0.0,80,0.00,CLR,,0.00,WeatherDisplay:10.37,2013-04-16 09:44:00,
2013-04-16 05:49:00,37.2,31.6,30.34,SW,225,0.5,1.1,80,0.00,CLR,,0.00,WeatherDisplay:10.37,2013-04-16 09:49:00,
2013-04-16 05:54:00,37.2,31.6,30.34,NNW,338,0.3,0.0,80,0.00,CLR,,0.00,WeatherDisplay:10.37,2013-04-16 09:54:00,
2013-04-16 05:59:00,37.0,31.4,30.35,SSE,158,0.6,0.0,80,0.00,CLR,,0.00,WeatherDisplay:10.37,2013-04-16 09:59:00,
2013-04-16 06:04:00,37.0,31.4,30.35,South,180,0.8,2.3,80,0.00,CLR,,0.00,WeatherDisplay:10.37,2013-04-16 10:04:00,
2013-04-16 06:09:00,37.0,31.4,30.35,South,180,0.8,2.3,80,0.00,CLR,,0.00,WeatherDisplay:10.37,2013-04-16 10:09:00,
2013-04-16 06:14:00,37.6,32.0,30.35,SE,135,1.6,2.3,80,0.00,CLR,,0.00,WeatherDisplay:10.37,2013-04-16 10:14:00,
2013-04-16 06:19:00,37.6,32.0,30.34,South,180,1.3,2.3,80,0.00,CLR,,0.00,WeatherDisplay:10.37,2013-04-16 10:19:00,
2013-04-16 06:24:00,37.4,31.8,30.34,South,180,1.1,2.3,80,0.00,CLR,,0.00,WeatherDisplay:10.37,2013-04-16 10:24:00,
2013-04-16 06:29:00,37.8,32.1,30.34,SE,135,1.5,1.5,80,0.00,CLR,,0.00,WeatherDisplay:10.37,2013-04-16 10:29:00,
2013-04-16 06:34:00,38.3,32.7,30.34,SSW,202,1.4,2.3,80,0.00,CLR,,0.00,WeatherDisplay:10.37,2013-04-16 10:34:00,
2013-04-16 06:39:00,38.7,33.0,30.35,SSW,202,2.0,2.3,80,0.00,CLR,,0.00,WeatherDisplay:10.37,2013-04-16 10:39:00,
2013-04-16 06:44:00,39.0,33.4,30.35,WSW,248,2.0,2.3,80,0.00,CLR,,0.00,WeatherDisplay:10.37,2013-04-16 10:44:00,
2013-04-16 06:49:00,39.7,33.8,30.35,SSW,202,2.0,2.3,79,0.00,CLR,,0.00,WeatherDisplay:10.37,2013-04-16 10:49:00,
2013-04-16 06:54:00,40.3,34.3,30.35,NW,315,2.2,2.2,79,0.00,CLR,,0.00,WeatherDisplay:10.37,2013-04-16 10:54:00,
2013-04-16 06:59:00,40.8,34.5,30.34,SW,225,2.2,2.3,78,0.00,CLR,,0.00,WeatherDisplay:10.37,2013-04-16 10:59:00,
2013-04-16 07:04:00,41.5,34.9,30.34,West,270,2.3,4.6,77,0.00,FEW,,0.00,WeatherDisplay:10.37,2013-04-16 11:04:00,
2013-04-16 07:09:00,41.9,35.2,30.34,SW,225,2.8,3.5,77,0.00,FEW,,0.00,WeatherDisplay:10.37,2013-04-16 11:09:00,
2013-04-16 07:14:00,41.7,34.7,30.34,WSW,248,2.8,5.8,76,0.00,FEW,,0.00,WeatherDisplay:10.37,2013-04-16 11:14:00,
2013-04-16 07:19:00,42.1,34.7,30.33,SW,225,3.0,9.2,75,0.00,FEW,,0.00,WeatherDisplay:10.37,2013-04-16 11:19:00,
2013-04-16 07:24:00,42.3,34.6,30.33,SW,225,3.1,3.1,74,0.00,FEW,,0.00,WeatherDisplay:10.37,2013-04-16 11:24:00,
2013-04-16 07:29:00,42.1,34.4,30.33,South,180,2.4,5.8,74,0.00,FEW,,0.00,WeatherDisplay:10.37,2013-04-16 11:29:00,
2013-04-16 07:34:00,42.1,34.4,30.33,South,180,1.8,2.3,74,0.00,FEW,,0.00,WeatherDisplay:10.37,2013-04-16 11:34:00,
2013-04-16 07:39:00,42.1,34.4,30.42,SSW,202,2.9,6.9,74,0.00,FEW,,0.00,WeatherDisplay:10.37,2013-04-16 11:39:00,
2013-04-16 07:44:00,42.6,34.9,30.42,South,180,3.3,5.8,74,0.00,FEW,,0.00,WeatherDisplay:10.37,2013-04-16 11:44:00,
2013-04-16 07:49:00,42.6,34.9,30.42,SSW,202,2.6,3.5,74,0.00,FEW,,0.00,WeatherDisplay:10.37,2013-04-16 11:49:00,
2013-04-16 07:54:00,43.2,35.4,30.42,South,180,2.6,9.2,74,0.00,FEW,,0.00,WeatherDisplay:10.37,2013-04-16 11:54:00,
2013-04-16 07:59:00,44.1,36.0,30.41,South,180,3.1,5.8,73,0.00,FEW,,0.00,WeatherDisplay:10.37,2013-04-16 11:59:00,
2013-04-16 08:04:00,44.4,36.3,30.41,South,180,3.2,6.9,73,0.00,CLR,,0.00,WeatherDisplay:10.37,2013-04-16 12:04:00,
2013-04-16 08:09:00,45.0,36.8,30.41,ESE,112,3.8,4.6,73,0.00,CLR,,0.00,WeatherDisplay:10.37,2013-04-16 12:09:00,
2013-04-16 08:14:00,45.1,36.6,30.41,South,180,3.9,4.6,72,0.00,CLR,,0.00,WeatherDisplay:10.37,2013-04-16 12:14:00,
2013-04-16 08:19:00,46.4,37.9,30.41,SSE,158,3.7,3.7,72,0.00,CLR,,0.00,WeatherDisplay:10.37,2013-04-16 12:19:00,
2013-04-16 08:24:00,47.1,38.6,30.41,SSE,158,2.9,6.9,72,0.00,CLR,,0.00,WeatherDisplay:10.37,2013-04-16 12:24:00,
2013-04-16 08:29:00,47.7,39.1,30.41,SSE,158,3.1,10.4,72,0.00,CLR,,0.00,WeatherDisplay:10.37,2013-04-16 12:29:00,
2013-04-16 08:34:00,48.0,38.7,30.41,SW,225,3.3,5.8,70,0.00,CLR,,0.00,WeatherDisplay:10.37,2013-04-16 12:34:00,
2013-04-16 08:39:00,48.4,39.4,30.40,South,180,3.3,5.8,71,0.00,CLR,,0.00,WeatherDisplay:10.37,2013-04-16 12:39:00,
2013-04-16 08:44:00,49.1,39.7,30.40,East,90,2.8,3.5,70,0.00,CLR,,0.00,WeatherDisplay:10.37,2013-04-16 12:44:00,
2013-04-16 08:49:00,49.8,40.4,30.40,South,180,2.6,2.6,70,0.00,CLR,,0.00,WeatherDisplay:10.37,2013-04-16 12:49:00,
2013-04-16 08:54:00,50.4,40.6,30.40,South,180,2.6,3.5,69,0.00,CLR,,0.00,WeatherDisplay:10.37,2013-04-16 12:54:00,
2013-04-16 08:59:00,50.5,40.4,30.40,South,180,2.8,4.6,68,0.00,CLR,,0.00,WeatherDisplay:10.37,2013-04-16 12:59:00,
2013-04-16 09:04:00,50.5,40.7,30.40,SW,225,2.5,2.5,69,0.00,CLR,,0.00,WeatherDisplay:10.37,2013-04-16 13:04:00,
2013-04-16 09:09:00,50.9,40.7,30.40,SE,135,2.6,3.5,68,0.00,CLR,,0.00,WeatherDisplay:10.37,2013-04-16 13:09:00,
2013-04-16 09:14:00,51.6,42.2,30.40,ESE,112,3.1,9.2,70,0.00,CLR,,0.00,WeatherDisplay:10.37,2013-04-16 13:14:00,
2013-04-16 09:19:00,52.2,42.3,30.40,SW,225,3.7,6.9,69,0.00,CLR,,0.00,WeatherDisplay:10.37,2013-04-16 13:19:00,
2013-04-16 09:24:00,52.3,41.7,30.40,SE,135,4.4,5.8,67,0.00,CLR,,0.00,WeatherDisplay:10.37,2013-04-16 13:24:00,
2013-04-16 09:29:00,52.9,42.6,30.40,NE,45,4.3,6.9,68,0.00,CLR,,0.00,WeatherDisplay:10.37,2013-04-16 13:29:00,
2013-04-16 09:34:00,53.8,43.1,30.40,East,90,3.5,3.5,67,0.00,CLR,,0.00,WeatherDisplay:10.37,2013-04-16 13:34:00,
2013-04-16 09:39:00,53.6,42.5,30.39,SSE,158,3.0,6.9,66,0.00,CLR,,0.00,WeatherDisplay:10.37,2013-04-16 13:39:00,
2013-04-16 09:44:00,54.0,42.9,30.39,South,180,2.9,6.9,66,0.00,CLR,,0.00,WeatherDisplay:10.37,2013-04-16 13:44:00,
2013-04-16 09:49:00,54.9,43.3,30.39,South,180,3.3,3.5,65,0.00,CLR,,0.00,WeatherDisplay:10.37,2013-04-16 13:49:00,
2013-04-16 09:54:00,54.9,43.3,30.39,SSW,202,3.3,4.6,65,0.00,CLR,,0.00,WeatherDisplay:10.37,2013-04-16 13:54:00,
2013-04-16 09:59:00,55.2,43.2,30.39,South,180,3.1,4.6,64,0.00,CLR,,0.00,WeatherDisplay:10.37,2013-04-16 13:59:00,
2013-04-16 10:04:00,55.2,42.8,30.39,West,270,3.3,8.1,63,0.00,OVC,,0.00,WeatherDisplay:10.37,2013-04-16 14:04:00,
2013-04-16 10:09:00,55.0,42.3,30.39,NE,45,3.9,5.8,62,0.00,OVC,,0.00,WeatherDisplay:10.37,2013-04-16 14:09:00,
2013-04-16 10:14:00,55.0,43.1,30.39,SW,225,3.6,5.8,64,0.00,OVC,,0.00,WeatherDisplay:10.37,2013-04-16 14:14:00,
2013-04-16 10:19:00,55.6,42.8,30.38,SW,225,3.9,10.4,62,0.00,OVC,,0.00,WeatherDisplay:10.37,2013-04-16 14:19:00,
2013-04-16 10:24:00,55.8,43.8,30.38,SE,135,3.9,5.8,64,0.00,OVC,,0.00,WeatherDisplay:10.37,2013-04-16 14:24:00,
2013-04-16 10:29:00,56.1,42.8,30.38,SSW,202,4.4,6.9,61,0.00,OVC,,0.00,WeatherDisplay:10.37,2013-04-16 14:29:00,
2013-04-16 10:34:00,56.5,43.6,30.38,SW,225,3.9,9.2,62,0.00,OVC,,0.00,WeatherDisplay:10.37,2013-04-16 14:34:00,
2013-04-16 10:39:00,56.5,43.2,30.38,SSE,158,3.9,5.8,61,0.00,OVC,,0.00,WeatherDisplay:10.37,2013-04-16 14:39:00,
2013-04-16 10:44:00,56.7,43.4,30.38,SSW,202,4.1,4.6,61,0.00,OVC,,0.00,WeatherDisplay:10.37,2013-04-16 14:44:00,
2013-04-16 10:49:00,56.7,42.9,30.38,NNW,338,3.5,5.8,60,0.00,OVC,,0.00,WeatherDisplay:10.37,2013-04-16 14:49:00,
2013-04-16 10:54:00,56.7,43.4,30.38,SSW,202,3.3,3.3,61,0.00,OVC,,0.00,WeatherDisplay:10.37,2013-04-16 14:54:00,
2013-04-16 10:59:00,57.0,44.1,30.38,WSW,248,2.8,3.5,62,0.00,OVC,,0.00,WeatherDisplay:10.37,2013-04-16 14:59:00,
2013-04-16 11:04:00,57.2,44.3,30.38,SSW,202,2.6,5.8,62,0.00,BKN,,0.00,WeatherDisplay:10.37,2013-04-16 15:04:00,
2013-04-16 11:09:00,57.9,45.0,30.38,SSE,158,3.7,6.9,62,0.00,BKN,,0.00,WeatherDisplay:10.37,2013-04-16 15:09:00,
2013-04-16 11:14:00,57.9,44.1,30.38,SW,225,4.0,4.6,60,0.00,BKN,,0.00,WeatherDisplay:10.37,2013-04-16 15:14:00,
2013-04-16 11:19:00,58.1,44.7,30.36,SSW,202,3.3,4.6,61,0.00,BKN,,0.00,WeatherDisplay:10.37,2013-04-16 15:19:00,
2013-04-16 11:24:00,58.5,45.1,30.36,SSW,202,3.3,4.6,61,0.00,BKN,,0.00,WeatherDisplay:10.37,2013-04-16 15:24:00,
2013-04-16 11:29:00,58.3,44.0,30.36,SW,225,3.7,6.9,59,0.00,BKN,,0.00,WeatherDisplay:10.37,2013-04-16 15:29:00,
2013-04-16 11:34:00,58.6,44.8,30.36,SW,225,4.0,6.1,60,0.00,BKN,,0.00,WeatherDisplay:10.37,2013-04-16 15:34:00,
2013-04-16 11:39:00,59.2,45.3,30.35,NW,315,4.0,5.8,60,0.00,BKN,,0.00,WeatherDisplay:10.37,2013-04-16 15:39:00,
2013-04-16 11:44:00,59.4,45.5,30.35,WNW,292,4.1,12.7,60,0.00,BKN,,0.00,WeatherDisplay:10.37,2013-04-16 15:44:00,
2013-04-16 11:49:00,60.1,46.6,30.35,SSW,202,3.5,3.5,61,0.00,BKN,,0.00,WeatherDisplay:10.37,2013-04-16 15:49:00,
2013-04-16 11:54:00,60.6,47.1,30.35,ENE,68,3.0,3.9,61,0.00,BKN,,0.00,WeatherDisplay:10.37,2013-04-16 15:54:00,
2013-04-16 11:59:00,61.0,46.1,30.34,SSW,202,3.8,6.9,58,0.00,BKN,,0.00,WeatherDisplay:10.37,2013-04-16 15:59:00,
2013-04-16 12:04:00,61.0,46.5,30.34,NNW,338,3.9,3.9,59,0.00,BKN,,0.00,WeatherDisplay:10.37,2013-04-16 16:04:00,
2013-04-16 12:09:00,61.0,46.5,30.34,NNW,338,3.9,3.9,59,0.00,BKN,,0.00,WeatherDisplay:10.37,2013-04-16 16:09:00,
2013-04-16 12:14:00,61.3,46.4,30.34,WNW,292,4.1,4.6,58,0.00,BKN,,0.00,WeatherDisplay:10.37,2013-04-16 16:14:00,
2013-04-16 12:19:00,61.5,46.1,30.32,ESE,112,4.3,9.2,57,0.00,BKN,,0.00,WeatherDisplay:10.37,2013-04-16 16:19:00,
2013-04-16 12:24:00,61.9,45.5,30.32,SW,225,4.7,8.1,55,0.00,BKN,,0.00,WeatherDisplay:10.37,2013-04-16 16:24:00,
2013-04-16 12:29:00,61.7,45.4,30.32,South,180,4.4,4.6,55,0.00,BKN,,0.00,WeatherDisplay:10.37,2013-04-16 16:29:00,
2013-04-16 12:34:00,62.2,45.9,30.32,SW,225,4.7,6.9,55,0.00,BKN,,0.00,WeatherDisplay:10.37,2013-04-16 16:34:00,
2013-04-16 12:39:00,63.0,47.0,30.30,NE,45,4.6,4.6,56,0.00,BKN,,0.00,WeatherDisplay:10.37,2013-04-16 16:39:00,
2013-04-16 12:44:00,63.0,46.0,30.30,SSE,158,4.4,4.6,54,0.00,BKN,,0.00,WeatherDisplay:10.37,2013-04-16 16:44:00,
2013-04-16 12:49:00,63.3,46.9,30.30,West,270,4.4,4.6,55,0.00,BKN,,0.00,WeatherDisplay:10.37,2013-04-16 16:49:00,
2013-04-16 12:54:00,63.5,47.0,30.30,SSE,158,4.3,6.9,55,0.00,BKN,,0.00,WeatherDisplay:10.37,2013-04-16 16:54:00,
2013-04-16 12:59:00,64.2,46.2,30.30,SSE,158,4.6,6.9,52,0.00,BKN,,0.00,WeatherDisplay:10.37,2013-04-16 16:59:00,
2013-04-16 13:04:00,64.2,46.7,30.30,NNW,338,4.8,4.8,53,0.00,CLR,,0.00,WeatherDisplay:10.37,2013-04-16 17:04:00,
2013-04-16 13:09:00,64.9,47.4,30.30,East,90,3.8,4.6,53,0.00,CLR,,0.00,WeatherDisplay:10.37,2013-04-16 17:09:00,
2013-04-16 13:14:00,65.5,47.4,30.30,SW,225,3.5,3.5,52,0.00,CLR,,0.00,WeatherDisplay:10.37,2013-04-16 17:14:00,
2013-04-16 13:19:00,65.3,45.6,30.30,NW,315,4.3,12.7,49,0.00,CLR,,0.00,WeatherDisplay:10.37,2013-04-16 17:19:00,
2013-04-16 13:24:00,64.9,46.4,30.30,SW,225,4.4,4.4,51,0.00,CLR,,0.00,WeatherDisplay:10.37,2013-04-16 17:24:00,
2013-04-16 13:29:00,66.4,48.2,30.30,SSE,158,3.6,5.8,52,0.00,CLR,,0.00,WeatherDisplay:10.37,2013-04-16 17:29:00,
2013-04-16 13:34:00,66.7,47.5,30.30,East,90,4.3,5.8,50,0.00,CLR,,0.00,WeatherDisplay:10.37,2013-04-16 17:34:00,
2013-04-16 13:39:00,66.7,46.4,30.30,South,180,4.9,9.2,48,0.00,CLR,,0.00,WeatherDisplay:10.37,2013-04-16 17:39:00,
2013-04-16 13:44:00,66.4,46.1,30.30,WSW,248,5.2,5.8,48,0.00,CLR,,0.00,WeatherDisplay:10.37,2013-04-16 17:44:00,
2013-04-16 13:49:00,67.3,47.5,30.30,SW,225,5.9,9.2,49,0.00,CLR,,0.00,WeatherDisplay:10.37,2013-04-16 17:49:00,
2013-04-16 13:54:00,69.8,47.5,30.30,SSW,202,5.4,5.4,45,0.00,CLR,,0.00,WeatherDisplay:10.37,2013-04-16 17:54:00,
2013-04-16 13:59:00,71.8,48.7,30.29,East,90,3.6,6.9,44,0.00,CLR,,0.00,WeatherDisplay:10.37,2013-04-16 17:59:00,
2013-04-16 14:04:00,72.5,48.7,30.29,SW,225,3.9,6.9,43,0.00,CLR,,0.00,WeatherDisplay:10.37,2013-04-16 18:04:00,
2013-04-16 14:09:00,72.1,47.8,30.29,WSW,248,5.2,8.1,42,0.00,CLR,,0.00,WeatherDisplay:10.37,2013-04-16 18:09:00,
2013-04-16 14:14:00,73.0,49.2,30.29,SSE,158,4.7,4.7,43,0.00,CLR,,0.00,WeatherDisplay:10.37,2013-04-16 18:14:00,
2013-04-16 14:19:00,71.6,47.9,30.27,SSE,158,4.3,8.1,43,0.00,CLR,,0.00,WeatherDisplay:10.37,2013-04-16 18:19:00,
2013-04-16 14:24:00,70.7,47.1,30.27,SSE,158,4.9,9.2,43,0.00,CLR,,0.00,WeatherDisplay:10.37,2013-04-16 18:24:00,
2013-04-16 14:29:00,70.0,47.7,30.27,South,180,5.5,16.1,45,0.00,CLR,,0.00,WeatherDisplay:10.37,2013-04-16 18:29:00,
2013-04-16 14:34:00,69.6,47.3,30.27,SW,225,5.2,5.2,45,0.00,CLR,,0.00,WeatherDisplay:10.37,2013-04-16 18:34:00,
2013-04-16 14:39:00,69.8,47.5,30.26,SE,135,4.3,6.9,45,0.00,CLR,,0.00,WeatherDisplay:10.37,2013-04-16 18:39:00,
2013-04-16 14:44:00,69.6,47.3,30.26,WNW,292,4.3,9.2,45,0.00,CLR,,0.00,WeatherDisplay:10.37,2013-04-16 18:44:00,
2013-04-16 14:49:00,68.5,46.3,30.26,WSW,248,4.4,6.9,45,0.00,CLR,,0.00,WeatherDisplay:10.37,2013-04-16 18:49:00,
2013-04-16 14:54:00,67.8,46.3,30.26,SSW,202,4.7,4.7,46,0.00,CLR,,0.00,WeatherDisplay:10.37,2013-04-16 18:54:00,
2013-04-16 14:59:00,68.5,48.1,30.25,WSW,248,4.1,4.6,48,0.00,CLR,,0.00,WeatherDisplay:10.37,2013-04-16 18:59:00,
2013-04-16 15:04:00,68.7,47.7,30.25,South,180,3.8,8.1,47,0.00,CLR,,0.00,WeatherDisplay:10.37,2013-04-16 19:04:00,
2013-04-16 15:09:00,68.9,47.3,30.25,SSE,158,4.8,4.8,46,0.00,CLR,,0.00,WeatherDisplay:10.37,2013-04-16 19:09:00,
2013-04-16 15:14:00,69.3,48.2,30.25,South,180,4.6,6.9,47,0.00,CLR,,0.00,WeatherDisplay:10.37,2013-04-16 19:14:00,
2013-04-16 15:19:00,70.3,49.1,30.23,SW,225,3.6,4.6,47,0.00,CLR,,0.00,WeatherDisplay:10.37,2013-04-16 19:19:00,
2013-04-16 15:24:00,69.8,48.1,30.23,SSW,202,4.3,4.3,46,0.00,CLR,,0.00,WeatherDisplay:10.37,2013-04-16 19:24:00,
2013-04-16 15:29:00,68.2,46.6,30.23,SSW,202,4.8,8.1,46,0.00,CLR,,0.00,WeatherDisplay:10.37,2013-04-16 19:29:00,
2013-04-16 15:34:00,67.1,46.7,30.23,SSW,202,5.4,10.4,48,0.00,CLR,,0.00,WeatherDisplay:10.37,2013-04-16 19:34:00,
2013-04-16 15:39:00,64.2,48.2,30.24,WSW,248,4.9,8.1,56,0.00,CLR,,0.00,WeatherDisplay:10.37,2013-04-16 19:39:00,
2013-04-16 15:44:00,63.9,48.3,30.24,SW,225,3.9,4.6,57,0.00,CLR,,0.00,WeatherDisplay:10.37,2013-04-16 19:44:00,
2013-04-16 15:49:00,63.7,48.6,30.24,SW,225,3.5,4.6,58,0.00,CLR,,0.00,WeatherDisplay:10.37,2013-04-16 19:49:00,
2013-04-16 15:54:00,62.2,48.2,30.24,SW,225,3.9,9.2,60,0.00,CLR,,0.00,WeatherDisplay:10.37,2013-04-16 19:54:00,
2013-04-16 15:59:00,60.6,48.8,30.24,West,270,4.5,5.8,65,0.00,CLR,,0.00,WeatherDisplay:10.37,2013-04-16 19:59:00,
2013-04-16 16:04:00,59.2,48.6,30.24,SSE,158,4.4,4.4,68,0.00,BKN,,0.00,WeatherDisplay:10.37,2013-04-16 20:04:00,
2013-04-16 16:09:00,58.5,49.5,30.24,SSW,202,3.5,10.4,72,0.00,BKN,,0.00,WeatherDisplay:10.37,2013-04-16 20:09:00,
2013-04-16 16:14:00,57.6,49.3,30.24,South,180,4.3,4.6,74,0.00,BKN,,0.00,WeatherDisplay:10.37,2013-04-16 20:14:00,
2013-04-16 16:19:00,56.8,49.4,30.24,SSW,202,4.7,8.1,76,0.00,BKN,,0.00,WeatherDisplay:10.37,2013-04-16 20:19:00,
2013-04-16 16:24:00,56.3,49.5,30.24,ENE,68,4.3,5.8,78,0.00,BKN,,0.00,WeatherDisplay:10.37,2013-04-16 20:24:00,
2013-04-16 16:29:00,55.6,49.2,30.24,SSE,158,4.7,8.1,79,0.00,BKN,,0.00,WeatherDisplay:10.37,2013-04-16 20:29:00,
2013-04-16 16:34:00,55.2,49.2,30.24,WSW,248,4.3,4.3,80,0.00,BKN,,0.00,WeatherDisplay:10.37,2013-04-16 20:34:00,
2013-04-16 16:39:00,55.0,49.0,30.22,SSE,158,3.7,4.6,80,0.01,RA,,0.01,WeatherDisplay:10.37,2013-04-16 20:39:00,
2013-04-16 16:44:00,55.2,49.5,30.22,SW,225,3.7,4.6,81,0.01,RA,,0.01,WeatherDisplay:10.37,2013-04-16 20:44:00,
2013-04-16 16:49:00,55.2,49.8,30.22,South,180,3.3,4.6,82,0.01,BKN,,0.01,WeatherDisplay:10.37,2013-04-16 20:49:00,
2013-04-16 16:54:00,55.2,49.5,30.22,SW,225,3.0,6.9,81,0.01,BKN,,0.01,WeatherDisplay:10.37,2013-04-16 20:54:00,
2013-04-16 16:59:00,54.9,49.1,30.20,SSE,158,3.2,4.6,81,0.01,BKN,,0.01,WeatherDisplay:10.37,2013-04-16 20:59:00,
2013-04-16 17:04:00,54.5,48.8,30.20,South,180,3.5,3.5,81,0.01,BKN,,0.01,WeatherDisplay:10.37,2013-04-16 21:04:00,
2013-04-16 17:09:00,54.3,48.9,30.20,SW,225,3.1,3.5,82,0.01,BKN,,0.01,WeatherDisplay:10.37,2013-04-16 21:09:00,
2013-04-16 17:14:00,54.5,49.1,30.20,WSW,248,2.8,4.6,82,0.01,BKN,,0.01,WeatherDisplay:10.37,2013-04-16 21:14:00,
2013-04-16 17:19:00,54.5,49.1,30.20,NNE,22,3.7,5.8,82,0.01,BKN,,0.01,WeatherDisplay:10.37,2013-04-16 21:19:00,
2013-04-16 17:24:00,54.3,48.6,30.20,SW,225,4.4,6.9,81,0.01,BKN,,0.01,WeatherDisplay:10.37,2013-04-16 21:24:00,
2013-04-16 17:29:00,54.5,48.8,30.20,South,180,4.6,6.9,81,0.01,BKN,,0.01,WeatherDisplay:10.37,2013-04-16 21:29:00,
2013-04-16 17:34:00,54.5,49.1,30.20,SW,225,3.9,3.9,82,0.01,BKN,,0.01,WeatherDisplay:10.37,2013-04-16 21:34:00,
2013-04-16 17:39:00,54.5,48.8,30.20,SSE,158,2.8,6.9,81,0.00,BKN,,0.01,WeatherDisplay:10.37,2013-04-16 21:39:00,
2013-04-16 17:44:00,54.9,49.1,30.20,SW,225,3.6,10.4,81,0.00,BKN,,0.01,WeatherDisplay:10.37,2013-04-16 21:44:00,
2013-04-16 17:49:00,55.2,49.8,30.20,NW,315,4.7,8.1,82,0.00,BKN,,0.01,WeatherDisplay:10.37,2013-04-16 21:49:00,
2013-04-16 17:54:00,55.2,49.5,30.20,SW,225,5.1,5.1,81,0.00,BKN,,0.01,WeatherDisplay:10.37,2013-04-16 21:54:00,
2013-04-16 17:59:00,55.0,49.0,30.19,SSW,202,5.1,9.2,80,0.00,BKN,,0.01,WeatherDisplay:10.37,2013-04-16 21:59:00,
2013-04-16 18:04:00,55.0,49.3,30.19,SW,225,4.9,4.9,81,0.00,SCT,,0.01,WeatherDisplay:10.37,2013-04-16 22:04:00,
2013-04-16 18:09:00,55.0,49.0,30.19,South,180,4.9,16.1,80,0.00,SCT,,0.01,WeatherDisplay:10.37,2013-04-16 22:09:00,
2013-04-16 18:14:00,55.0,49.3,30.19,West,270,3.6,3.6,81,0.00,SCT,,0.01,WeatherDisplay:10.37,2013-04-16 22:14:00,
2013-04-16 18:19:00,54.7,49.0,30.19,SSW,202,2.3,5.8,81,0.00,SCT,,0.01,WeatherDisplay:10.37,2013-04-16 22:19:00,
2013-04-16 18:24:00,54.9,49.1,30.19,SE,135,2.3,2.3,81,0.00,SCT,,0.01,WeatherDisplay:10.37,2013-04-16 22:24:00,
2013-04-16 18:29:00,54.9,49.5,30.19,ESE,112,2.0,2.3,82,0.00,SCT,,0.01,WeatherDisplay:10.37,2013-04-16 22:29:00,
2013-04-16 18:34:00,54.7,49.3,30.19,SW,225,1.4,2.3,82,0.00,SCT,,0.01,WeatherDisplay:10.37,2013-04-16 22:34:00,
2013-04-16 18:39:00,54.5,49.1,30.18,SSE,158,2.6,6.9,82,0.00,SCT,,0.01,WeatherDisplay:10.37,2013-04-16 22:39:00,
2013-04-16 18:44:00,54.3,48.9,30.18,WSW,248,3.3,3.3,82,0.00,SCT,,0.01,WeatherDisplay:10.37,2013-04-16 22:44:00,
2013-04-16 18:49:00,54.3,48.6,30.18,SSW,202,3.8,8.1,81,0.00,SCT,,0.01,WeatherDisplay:10.37,2013-04-16 22:49:00,
2013-04-16 18:54:00,54.5,48.8,30.18,WSW,248,3.6,10.4,81,0.00,SCT,,0.01,WeatherDisplay:10.37,2013-04-16 22:54:00,
2013-04-16 18:59:00,54.5,49.1,30.19,SW,225,2.8,2.8,82,0.00,SCT,,0.01,WeatherDisplay:10.37,2013-04-16 22:59:00,
2013-04-16 19:04:00,54.1,48.8,30.19,SSW,202,2.5,5.8,82,0.00,OVC,,0.01,WeatherDisplay:10.37,2013-04-16 23:04:00,
2013-04-16 19:09:00,54.1,48.8,30.19,WSW,248,2.6,8.1,82,0.00,OVC,,0.01,WeatherDisplay:10.37,2013-04-16 23:09:00,
2013-04-16 19:14:00,54.1,48.8,30.19,SSW,202,3.2,3.2,82,0.00,OVC,,0.01,WeatherDisplay:10.37,2013-04-16 23:14:00,
2013-04-16 19:19:00,54.1,48.4,30.17,South,180,3.1,4.6,81,0.00,OVC,,0.01,WeatherDisplay:10.37,2013-04-16 23:19:00,
2013-04-16 19:24:00,54.1,48.4,30.17,South,180,3.5,3.5,81,0.00,OVC,,0.01,WeatherDisplay:10.37,2013-04-16 23:24:00,
2013-04-16 19:29:00,54.0,48.3,30.17,SSE,158,3.5,4.6,81,0.00,OVC,,0.01,WeatherDisplay:10.37,2013-04-16 23:29:00,
2013-04-16 19:34:00,54.1,48.4,30.17,SSW,202,3.6,4.6,81,0.00,OVC,,0.01,WeatherDisplay:10.37,2013-04-16 23:34:00,
2013-04-16 19:39:00,54.1,48.8,30.18,South,180,3.5,3.5,82,0.00,OVC,,0.01,WeatherDisplay:10.37,2013-04-16 23:39:00,
2013-04-16 19:44:00,54.0,48.3,30.18,WNW,292,3.6,4.6,81,0.00,OVC,,0.01,WeatherDisplay:10.37,2013-04-16 23:44:00,
2013-04-16 19:49:00,54.1,48.4,30.18,SW,225,3.8,3.8,81,0.00,OVC,,0.01,WeatherDisplay:10.37,2013-04-16 23:49:00,
2013-04-16 19:54:00,54.1,48.4,30.18,SW,225,3.3,4.6,81,0.00,OVC,,0.01,WeatherDisplay:10.37,2013-04-16 23:54:00,
2013-04-16 19:59:00,54.1,48.4,30.17,SSE,158,2.8,4.6,81,0.00,OVC,,0.01,WeatherDisplay:10.37,2013-04-16 23:59:00,
2013-04-16 20:04:00,54.1,48.4,30.17,WSW,248,3.5,5.8,81,0.00,OVC,,0.01,WeatherDisplay:10.37,2013-04-17 00:04:00,
2013-04-16 20:09:00,54.1,48.4,30.17,SE,135,3.5,3.5,81,0.00,OVC,,0.01,WeatherDisplay:10.37,2013-04-17 00:09:00,
2013-04-16 20:14:00,54.1,48.4,30.17,SW,225,2.6,5.8,81,0.00,OVC,,0.01,WeatherDisplay:10.37,2013-04-17 00:14:00,
2013-04-16 20:19:00,54.1,48.4,30.17,SW,225,3.2,9.2,81,0.00,OVC,,0.01,WeatherDisplay:10.37,2013-04-17 00:19:00,
2013-04-16 20:24:00,54.1,48.4,30.17,East,90,3.7,3.7,81,0.00,OVC,,0.01,WeatherDisplay:10.37,2013-04-17 00:24:00,
2013-04-16 20:29:00,54.1,48.1,30.17,SW,225,4.5,9.2,80,0.00,OVC,,0.01,WeatherDisplay:10.37,2013-04-17 00:29:00,
2013-04-16 20:34:00,54.1,48.4,30.17,West,270,4.3,4.3,81,0.00,OVC,,0.01,WeatherDisplay:10.37,2013-04-17 00:34:00,
2013-04-16 20:39:00,54.1,48.4,30.17,SSW,202,3.3,4.6,81,0.00,OVC,,0.01,WeatherDisplay:10.37,2013-04-17 00:39:00,
2013-04-16 20:44:00,54.1,48.4,30.17,SW,225,3.3,3.5,81,0.00,OVC,,0.01,WeatherDisplay:10.37,2013-04-17 00:44:00,
2013-04-16 20:49:00,54.0,48.3,30.17,SSW,202,3.5,9.2,81,0.00,OVC,,0.01,WeatherDisplay:10.37,2013-04-17 00:49:00,
2013-04-16 20:54:00,54.1,48.4,30.17,WSW,248,3.3,4.6,81,0.00,OVC,,0.01,WeatherDisplay:10.37,2013-04-17 00:54:00,
2013-04-16 20:59:00,53.8,48.1,30.17,SW,225,3.1,3.5,81,0.00,OVC,,0.01,WeatherDisplay:10.37,2013-04-17 00:59:00,
2013-04-16 21:04:00,53.8,48.4,30.17,South,180,4.4,6.9,82,0.00,OVC,,0.01,WeatherDisplay:10.37,2013-04-17 01:04:00,
2013-04-16 21:09:00,53.6,48.2,30.17,SSE,158,5.5,8.1,82,0.00,OVC,,0.01,WeatherDisplay:10.37,2013-04-17 01:09:00,
2013-04-16 21:14:00,53.4,48.1,30.17,WSW,248,5.2,5.8,82,0.00,OVC,,0.01,WeatherDisplay:10.37,2013-04-17 01:14:00,
2013-04-16 21:19:00,53.4,48.4,30.13,SW,225,4.6,8.1,83,0.00,OVC,,0.01,WeatherDisplay:10.37,2013-04-17 01:19:00,
2013-04-16 21:24:00,53.2,48.2,30.13,SW,225,3.7,5.8,83,0.00,OVC,,0.01,WeatherDisplay:10.37,2013-04-17 01:24:00,
2013-04-16 21:29:00,53.4,48.4,30.13,WNW,292,3.0,5.8,83,0.00,OVC,,0.01,WeatherDisplay:10.37,2013-04-17 01:29:00,
2013-04-16 21:34:00,53.4,48.4,30.13,South,180,3.3,3.3,83,0.00,OVC,,0.01,WeatherDisplay:10.37,2013-04-17 01:34:00,
2013-04-16 21:39:00,53.4,48.4,30.16,SSW,202,2.8,2.8,83,0.00,OVC,,0.01,WeatherDisplay:10.37,2013-04-17 01:39:00,
2013-04-16 21:44:00,53.2,48.2,30.16,SSW,202,2.6,4.6,83,0.00,OVC,,0.01,WeatherDisplay:10.37,2013-04-17 01:44:00,
2013-04-16 21:49:00,53.6,48.6,30.16,WNW,292,3.7,6.9,83,0.00,OVC,,0.01,WeatherDisplay:10.37,2013-04-17 01:49:00,
2013-04-16 21:54:00,53.6,48.6,30.16,NE,45,4.5,6.0,83,0.00,OVC,,0.01,WeatherDisplay:10.37,2013-04-17 01:54:00,
2013-04-16 21:59:00,53.8,48.7,30.15,SSW,202,3.8,5.8,83,0.00,OVC,,0.01,WeatherDisplay:10.37,2013-04-17 01:59:00,
2013-04-16 22:04:00,53.6,48.6,30.15,NW,315,3.6,3.6,83,0.00,OVC,,0.01,WeatherDisplay:10.37,2013-04-17 02:04:00,
2013-04-16 22:09:00,53.8,48.7,30.15,SE,135,3.5,9.2,83,0.00,OVC,,0.01,WeatherDisplay:10.37,2013-04-17 02:09:00,
2013-04-16 22:14:00,53.6,48.6,30.15,SSE,158,3.2,5.1,83,0.00,OVC,,0.01,WeatherDisplay:10.37,2013-04-17 02:14:00,
2013-04-16 22:19:00,53.8,48.7,30.15,SW,225,2.8,4.6,83,0.00,OVC,,0.01,WeatherDisplay:10.37,2013-04-17 02:19:00,
2013-04-16 22:24:00,53.6,48.2,30.15,SE,135,2.8,2.8,82,0.00,OVC,,0.01,WeatherDisplay:10.37,2013-04-17 02:24:00,
2013-04-16 22:29:00,53.6,48.2,30.15,SW,225,3.6,6.9,82,0.00,OVC,,0.01,WeatherDisplay:10.37,2013-04-17 02:29:00,
2013-04-16 22:34:00,53.8,48.4,30.15,South,180,4.1,11.5,82,0.00,OVC,,0.01,WeatherDisplay:10.37,2013-04-17 02:34:00,
2013-04-16 22:39:00,53.8,48.4,30.14,SW,225,4.3,6.9,82,0.00,OVC,,0.01,WeatherDisplay:10.37,2013-04-17 02:39:00,
2013-04-16 22:44:00,54.1,48.8,30.14,SSE,158,3.9,3.9,82,0.00,OVC,,0.01,WeatherDisplay:10.37,2013-04-17 02:44:00,
2013-04-16 22:49:00,54.1,48.8,30.14,South,180,3.8,3.8,82,0.00,OVC,,0.01,WeatherDisplay:10.37,2013-04-17 02:49:00,
2013-04-16 22:54:00,54.3,48.9,30.14,ESE,112,3.6,3.6,82,0.00,OVC,,0.01,WeatherDisplay:10.37,2013-04-17 02:54:00,
2013-04-16 22:59:00,54.3,48.6,30.13,South,180,3.8,8.5,81,0.00,OVC,,0.01,WeatherDisplay:10.37,2013-04-17 02:59:00,
2013-04-16 23:04:00,54.5,48.8,30.13,WNW,292,3.9,3.9,81,0.00,BKN,,0.01,WeatherDisplay:10.37,2013-04-17 03:04:00,
2013-04-16 23:09:00,54.9,49.1,30.13,SW,225,4.3,7.2,81,0.00,BKN,,0.01,WeatherDisplay:10.37,2013-04-17 03:09:00,
2013-04-16 23:14:00,54.9,49.1,30.13,NNE,22,3.8,3.8,81,0.00,BKN,,0.01,WeatherDisplay:10.37,2013-04-17 03:14:00,
2013-04-16 23:19:00,55.0,49.3,30.13,West,270,3.5,7.0,81,0.00,BKN,,0.01,WeatherDisplay:10.37,2013-04-17 03:19:00,
2013-04-16 23:24:00,55.2,49.5,30.13,WNW,292,3.5,4.6,81,0.00,BKN,,0.01,WeatherDisplay:10.37,2013-04-17 03:24:00,
2013-04-16 23:29:00,55.4,49.7,30.13,SSE,158,3.5,8.1,81,0.00,BKN,,0.01,WeatherDisplay:10.37,2013-04-17 03:29:00,
2013-04-16 23:34:00,55.4,49.3,30.13,South,180,2.6,4.6,80,0.00,BKN,,0.01,WeatherDisplay:10.37,2013-04-17 03:34:00,
2013-04-16 23:39:00,55.2,49.2,30.14,SW,225,2.8,8.1,80,0.00,BKN,,0.01,WeatherDisplay:10.37,2013-04-17 03:39:00,
2013-04-16 23:44:00,55.6,49.5,30.14,NNW,338,2.6,6.9,80,0.00,BKN,,0.01,WeatherDisplay:10.37,2013-04-17 03:44:00,
2013-04-16 23:49:00,55.4,49.3,30.14,West,270,2.1,4.9,80,0.00,BKN,,0.01,WeatherDisplay:10.37,2013-04-17 03:49:00,
2013-04-16 23:54:00,55.6,49.5,30.14,SW,225,2.9,3.5,80,0.00,BKN,,0.01,WeatherDisplay:10.37,2013-04-17 03:54:00,
2013-04-16 23:59:00,55.8,49.7,30.07,South,180,3.9,6.9,80,0.00,BKN,,0.01,WeatherDisplay:10.37,2013-04-17 03:59:00,